Stations météo

réclame
Mon MeteoGroup
Retie, Belgique (6464): Température de l'air & dewpoint: 13.06.2019 11:00:00 - 19.06.2019 11:00:00 (CEST)Retie, Belgique (6464): Vitesse du vent & gusts: 13.06.2019 11:00:00 - 19.06.2019 11:00:00 (CEST)Retie, Belgique (6464): Direction du vent: 13.06.2019 11:00:00 - 19.06.2019 11:00:00 (CEST)Retie, Belgique (6464): reduced air pressure: 13.06.2019 11:00:00 - 19.06.2019 11:00:00 (CEST)Retie, Belgique (6464): Ensoleillement: 13.06.2019 11:00:00 - 19.06.2019 11:00:00 (CEST)Retie, Belgique (6464): Quantités de précipitations: 13.06.2019 11:00:00 - 19.06.2019 11:00:00 (CEST)
Date & Time tt [°C] td [°C] ff [km/h] ff [knt] fx [km/h] fx [knt] dd ppp [hPa] sd [min] rr [mm]
19.06.2019 11:00:00 - - - - - - - - - -
19.06.2019 10:00:00 20,4 15,7 9 5 22 12 N 1007,6 9 0,2
19.06.2019 09:00:00 21,6 16,9 6 4 18 10 NE 1007,1 47 0,0
19.06.2019 08:00:00 19,8 16,7 4 2 13 7 WSW 1007,3 43 0,0
19.06.2019 07:00:00 18,4 16,0 0 0 9 5 N 1007,5 39 0,0
19.06.2019 06:00:00 15,1 14,7 4 2 5 3 E 1007,8 0 0,0
19.06.2019 05:00:00 15,4 14,7 4 2 6 3 E 1008,2 0 0,0
19.06.2019 04:00:00 15,9 15,5 0 0 5 3 N 1008,9 0 0,0
19.06.2019 03:00:00 16,5 15,6 4 2 5 3 E 1009,4 0 0,0
19.06.2019 02:00:00 16,7 15,7 0 0 4 2 N 1010,0 0 0,0
19.06.2019 01:00:00 17,5 16,0 0 0 5 3 N 1010,7 0 0,0
19.06.2019 00:00:00 18,9 16,4 0 0 3 1 N 1010,8 0 0,0
18.06.2019 23:00:00 19,5 16,7 0 0 3 1 N 1011,4 0 0,0
18.06.2019 22:00:00 21,5 18,3 0 0 1 1 N 1011,5 0 0,0
18.06.2019 21:00:00 24,0 15,1 0 0 9 5 N 1011,3 11 0,0
18.06.2019 20:00:00 26,2 13,2 7 4 11 6 SSE 1011,6 60 0,0
18.06.2019 19:00:00 27,1 13,0 6 3 15 8 SSE 1011,9 57 0,0
18.06.2019 18:00:00 27,2 13,2 7 4 14 7 E 1012,2 56 0,0
18.06.2019 17:00:00 27,8 14,8 4 2 11 6 WSW 1012,8 60 0,0
18.06.2019 16:00:00 27,0 14,6 4 2 8 4 SSE 1013,4 53 0,0
18.06.2019 15:00:00 27,0 14,8 4 2 19 10 WSW 1014,0 48 0,0
18.06.2019 14:00:00 26,3 17,0 4 2 11 6 NNE 1014,4 51 0,0
18.06.2019 13:00:00 25,5 16,4 4 2 10 5 NNE 1014,9 55 0,0
18.06.2019 12:00:00 24,7 16,0 4 2 9 5 NNE 1015,0 60 0,0
18.06.2019 11:00:00 22,9 16,9 4 2 7 4 NW 1015,5 60 0,0
18.06.2019 10:00:00 21,4 16,8 4 2 6 3 WSW 1015,8 60 0,0
18.06.2019 09:00:00 19,4 16,4 4 2 7 4 NW 1016,1 60 0,0
18.06.2019 08:00:00 17,8 16,1 0 0 6 3 N 1016,1 60 0,0
18.06.2019 07:00:00 14,7 14,3 0 0 5 3 N 1016,1 32 0,0
18.06.2019 06:00:00 13,3 13,2 0 0 3 1 N 1015,9 0 0,0
18.06.2019 05:00:00 13,6 13,4 0 0 1 0 N 1016,2 0 0,0
18.06.2019 04:00:00 14,5 14,2 0 0 1 0 N 1016,5 0 0,0
18.06.2019 03:00:00 14,4 14,0 0 0 3 1 N 1017,0 0 0,0
18.06.2019 02:00:00 15,2 14,5 0 0 4 2 N 1017,0 0 0,0
18.06.2019 01:00:00 16,0 14,9 4 2 4 2 NNW 1017,2 0 0,0
18.06.2019 00:00:00 16,5 15,1 4 2 4 2 NW 1017,2 0 0,0
17.06.2019 23:00:00 18,1 16,0 0 0 7 4 N 1017,2 0 0,0
17.06.2019 22:00:00 20,8 16,0 0 0 3 2 N 1017,0 0 0,0
17.06.2019 21:00:00 23,9 13,7 4 2 6 3 S 1017,2 47 0,0
17.06.2019 20:00:00 25,1 13,5 4 2 11 6 SW 1017,3 60 0,0
17.06.2019 19:00:00 25,3 14,7 5 3 9 5 SW 1017,7 55 0,0
17.06.2019 18:00:00 24,8 13,1 10 5 16 9 S 1018,1 32 0,0
17.06.2019 17:00:00 24,1 12,9 8 4 14 8 S 1018,6 40 0,0
17.06.2019 16:00:00 24,9 13,7 11 6 19 10 S 1019,0 59 0,0
17.06.2019 15:00:00 24,2 14,0 8 5 20 11 SSE 1019,4 38 0,0
17.06.2019 14:00:00 23,6 13,8 4 2 16 8 S 1019,8 47 0,0
17.06.2019 13:00:00 23,3 13,7 10 5 21 11 S 1020,0 59 0,0
17.06.2019 12:00:00 22,6 13,9 9 5 21 11 SSW 1020,5 60 0,0
17.06.2019 11:00:00 21,7 13,8 10 5 17 9 S 1021,0 60 0,0
17.06.2019 10:00:00 20,5 14,7 9 5 16 8 SSE 1021,4 60 0,0
17.06.2019 09:00:00 18,5 14,6 8 4 11 6 SSE 1021,6 60 0,0
17.06.2019 08:00:00 16,1 14,5 4 2 6 4 S 1021,2 60 0,0
17.06.2019 07:00:00 13,0 12,7 4 2 5 3 ESE 1021,5 39 0,0
17.06.2019 06:00:00 10,9 10,9 0 0 4 2 N 1021,5 0 0,0
17.06.2019 05:00:00 10,9 10,9 0 0 3 2 N 1021,5 0 0,0
17.06.2019 04:00:00 11,2 11,2 0 0 3 1 N 1021,6 0 0,0
17.06.2019 03:00:00 11,6 11,6 0 0 4 2 N 1021,9 0 0,0
17.06.2019 02:00:00 12,5 12,4 4 2 4 2 N 1021,9 0 0,0
17.06.2019 01:00:00 12,9 12,3 0 0 4 2 N 1021,7 0 0,0
17.06.2019 00:00:00 13,7 12,8 0 0 4 2 N 1021,7 0 0,0
16.06.2019 23:00:00 15,4 13,4 4 2 6 4 E 1021,7 0 0,0
16.06.2019 22:00:00 18,0 13,3 4 2 16 9 SSW 1021,2 0 0,0
16.06.2019 21:00:00 19,8 13,0 7 4 13 7 SW 1021,2 6 0,0
16.06.2019 20:00:00 20,1 13,4 4 2 20 11 SW 1020,9 0 0,0
16.06.2019 19:00:00 20,2 13,4 4 2 15 8 WSW 1020,9 4 0,0
16.06.2019 18:00:00 20,4 12,1 6 3 19 10 SSW 1020,8 14 0,0
16.06.2019 17:00:00 21,1 12,8 7 4 21 11 WSW 1020,8 39 0,0
16.06.2019 16:00:00 21,4 14,0 5 3 19 11 W 1020,9 40 0,0
16.06.2019 15:00:00 19,5 13,1 13 7 23 12 SSW 1021,0 18 0,0
16.06.2019 14:00:00 18,9 12,3 14 8 24 13 SSW 1021,0 3 0,0
16.06.2019 13:00:00 19,3 13,0 12 6 25 13 SSW 1020,9 34 0,0
16.06.2019 12:00:00 17,8 13,3 10 5 28 15 SW 1020,7 31 0,0
16.06.2019 11:00:00 17,9 13,3 12 7 21 12 SSW 1020,4 28 0,0
16.06.2019 10:00:00 17,1 13,3 9 5 24 13 SW 1020,4 45 0,0
16.06.2019 09:00:00 16,3 12,9 9 5 21 11 SW 1019,8 60 0,0
16.06.2019 08:00:00 15,1 11,8 11 6 18 10 SW 1019,5 60 0,0
16.06.2019 07:00:00 13,5 11,3 5 3 9 5 SSW 1019,4 40 0,0
16.06.2019 06:00:00 12,4 10,5 5 3 9 5 SSW 1018,9 0 0,0
16.06.2019 05:00:00 12,6 11,1 4 2 8 5 SW 1018,6 0 0,0
16.06.2019 04:00:00 12,9 11,7 4 2 8 4 SW 1018,4 0 0,0
16.06.2019 03:00:00 14,4 13,3 5 3 10 6 S 1018,2 0 0,0
16.06.2019 02:00:00 14,5 14,2 4 2 10 5 SSE 1018,3 0 0,0
16.06.2019 01:00:00 13,2 13,1 4 2 5 3 ESE 1018,1 0 0,0
16.06.2019 00:00:00 13,0 12,8 4 2 4 2 ESE 1017,4 0 0,0
15.06.2019 23:00:00 14,0 13,6 0 0 3 1 N 1016,9 0 0,0
15.06.2019 22:00:00 15,7 14,0 0 0 3 1 N 1016,6 0 0,0
15.06.2019 21:00:00 17,2 14,6 4 2 18 10 N 1016,1 28 0,3
15.06.2019 20:00:00 17,2 13,9 11 6 22 12 NNW 1016,1 8 0,0
15.06.2019 19:00:00 19,9 13,8 4 2 11 6 S 1015,6 51 0,0
15.06.2019 18:00:00 19,9 13,8 4 2 12 6 W 1015,8 24 0,0
15.06.2019 17:00:00 20,3 15,1 6 4 18 10 WNW 1015,9 60 0,0
15.06.2019 16:00:00 19,6 15,1 9 5 18 10 WSW 1016,0 59 0,0
15.06.2019 15:00:00 18,6 15,7 12 7 21 11 W 1015,9 20 0,0
15.06.2019 14:00:00 17,5 16,2 7 4 16 8 WSW 1015,8 1 0,1
15.06.2019 13:00:00 18,0 15,5 8 4 13 7 WSW 1014,8 2 0,0
15.06.2019 12:00:00 17,9 15,3 8 4 18 10 W 1014,5 16 0,0
15.06.2019 11:00:00 16,6 15,1 8 4 17 9 WSW 1013,9 5 0,0
15.06.2019 10:00:00 15,2 14,7 7 4 15 8 WSW 1013,4 0 0,0
15.06.2019 09:00:00 14,4 14,1 7 4 13 7 W 1012,6 0 0,1
15.06.2019 08:00:00 14,0 13,7 7 4 17 9 NW 1011,6 0 3,5
15.06.2019 07:00:00 14,7 14,5 5 3 12 6 NW 1011,2 0 2,2
15.06.2019 06:00:00 15,1 14,9 4 2 9 5 WNW 1011,3 0 2,3
15.06.2019 05:00:00 15,5 15,0 4 2 6 3 NNW 1010,9 0 1,2
15.06.2019 04:00:00 15,9 14,8 0 0 7 4 N 1010,7 0 0,8
15.06.2019 03:00:00 16,3 14,5 4 2 10 5 N 1010,7 0 0,0
15.06.2019 02:00:00 16,7 14,5 4 2 15 8 N 1011,7 0 0,0
15.06.2019 01:00:00 16,9 14,3 5 3 17 9 N 1012,4 0 0,0
15.06.2019 00:00:00 17,9 14,6 6 3 16 9 N 1013,0 0 0,0
14.06.2019 23:00:00 19,5 14,8 5 3 17 9 NNW 1013,0 0 0,0
14.06.2019 22:00:00 20,2 14,5 4 2 9 5 N 1012,8 0 0,0
14.06.2019 21:00:00 21,9 14,4 4 2 9 5 NNW 1012,6 8 0,0
14.06.2019 20:00:00 24,0 14,2 4 2 8 4 NNW 1012,6 53 0,0
14.06.2019 19:00:00 24,1 14,1 4 2 10 5 WSW 1012,8 56 0,0
14.06.2019 18:00:00 23,5 13,5 9 5 18 10 S 1013,1 55 0,0
14.06.2019 17:00:00 23,2 13,3 10 5 24 13 SSW 1013,7 53 0,0
14.06.2019 16:00:00 22,8 13,7 12 7 27 15 SW 1014,2 52 0,0
14.06.2019 15:00:00 22,4 15,2 14 8 24 13 S 1014,7 41 0,0
14.06.2019 14:00:00 20,3 14,4 11 6 - - S 1015,0 4 -
14.06.2019 13:00:00 19,5 13,3 14 7 27 15 S 1015,0 32 0,0
14.06.2019 12:00:00 18,8 14,7 12 7 21 12 S 1015,0 58 0,0
14.06.2019 11:00:00 16,1 14,2 16 8 21 11 SE 1014,7 19 0,0
14.06.2019 10:00:00 13,7 12,9 8 4 16 9 ENE 1013,5 0 2,4
14.06.2019 09:00:00 14,1 12,6 8 4 12 6 S 1015,5 0 0,0
14.06.2019 08:00:00 13,3 12,2 4 2 8 4 S 1014,1 0 0,0
14.06.2019 07:00:00 12,2 11,7 4 2 8 4 SE 1013,7 0 0,0
14.06.2019 06:00:00 11,7 11,3 4 2 6 3 ESE 1013,4 0 0,0
14.06.2019 05:00:00 11,2 10,8 4 2 8 4 E 1013,2 0 0,0
14.06.2019 04:00:00 11,4 11,0 5 3 8 5 E 1013,3 0 0,0
14.06.2019 03:00:00 12,6 12,0 4 2 7 4 ESE 1013,8 0 0,0
14.06.2019 02:00:00 12,3 11,9 4 2 5 3 ESE 1013,9 0 0,0
14.06.2019 01:00:00 12,4 11,7 4 2 10 5 SE 1014,2 0 0,0
14.06.2019 00:00:00 12,9 11,5 7 4 19 10 S 1014,0 0 3,2
13.06.2019 23:00:00 13,0 12,5 4 2 12 7 SW 1014,0 0 0,8
13.06.2019 22:00:00 13,8 12,3 7 4 20 11 WSW 1013,2 0 3,8
13.06.2019 21:00:00 15,7 14,1 0 0 13 7 N 1012,2 6 0,1
13.06.2019 20:00:00 15,7 13,8 4 2 11 6 SE 1011,5 28 0,0
13.06.2019 19:00:00 15,7 13,2 5 3 27 14 SW 1011,5 16 5,2
13.06.2019 18:00:00 17,4 11,0 13 7 39 21 W 1011,2 32 0,0
13.06.2019 17:00:00 18,7 11,6 17 9 37 20 SW 1011,4 54 0,0
13.06.2019 16:00:00 16,7 12,2 16 9 44 24 S 1012,0 22 0,4
13.06.2019 15:00:00 18,5 9,7 19 10 - - SSW 1011,6 20 -
13.06.2019 14:00:00 17,4 9,5 18 10 - - SSW 1012,1 11 -
13.06.2019 13:00:00 16,6 9,6 19 11 36 19 S 1012,4 13 0,0
13.06.2019 12:00:00 16,0 9,0 18 10 39 21 SSW 1012,2 19 0,0
13.06.2019 11:00:00 16,0 9,3 22 12 41 22 S 1011,9 44 0,0

tt = Température de l'air
td = dewpoint
ff = Vitesse du vent
fx = gusts
dd = Direction du vent
ppp = reduced air pressure
sd = Ensoleillement
rr = Quantités de précipitations

stations d'obs. à proximité